ロサンゼルス の空港の天気 - METARとTAF

ロサンゼルス国際空港 ( KLAX / LAX ) - アメリカ カリフォルニア州ロサンゼルス
飛行場実況気象(Metar)
観測時間10/16 00:53 PDT (10/16 07:53 UTC)
風向・風速東 2m/s
視程10km以上
天気現象
全天の4割程度の雲 雲底高度 7620m
気温18.3℃
湿度76%
気圧1013.8hPa
METARKLAX 160753Z 10004KT 10SM SCT250 18/14 A2995 RMK AO2 SLP138 T01830139 402390150
過去の天気等 Google飛行場航空写真 Wunderground天気予報

過去48時間のMETAR

飛行場予報(TAF)
発表時間: 10/15 23:46 PDT (10/16 06:46 UTC)
予報対象時間: 16日0時 PDT ~ 17日5時 PDT
風向・風速東 3m/s
視程10km以上
全天の8割程度の雲 雲底高度 7620m
16日4時 PDT から
風向・風速不定 2m/s
視程10km以上
全天の8割程度の雲 雲底高度 7620m
16日13時 PDT から
風向・風速西 5m/s
視程10km以上
なし
16日21時 PDT から
風向・風速西南西 3m/s
視程10km以上
なし
17日0時 PDT から
風向・風速不定 2m/s
視程10km以上
なし
17日2時 PDT から
風向・風速不定 2m/s
視程10km以上
全天を覆う雲 雲底高度 460m
KLAX 160646Z 1607/1712 08005KT P6SM BKN250
FM161100 VRB03KT P6SM BKN250
FM162000 26010KT P6SM SKC
FM170400 25006KT P6SM SKC
FM170700 VRB03KT P6SM SKC
FM170900 VRB03KT P6SM OVC015